sensor_id;sensor_type;location;lat;lon;timestamp;temperature;humidity
17762;DHT22;9005;48.838;10.112;2023-08-08T00:00:28;11.00;32.70
17762;DHT22;9005;48.838;10.112;2023-08-08T00:02:55;11.00;55.40
17762;DHT22;9005;48.838;10.112;2023-08-08T00:05:22;11.00;70.00
17762;DHT22;9005;48.838;10.112;2023-08-08T00:07:48;10.90;79.00
17762;DHT22;9005;48.838;10.112;2023-08-08T00:10:17;10.90;83.60
17762;DHT22;9005;48.838;10.112;2023-08-08T00:12:43;10.90;91.60
17762;DHT22;9005;48.838;10.112;2023-08-08T00:15:10;10.80;96.50
17762;DHT22;9005;48.838;10.112;2023-08-08T00:17:37;10.80;99.90
17762;DHT22;9005;48.838;10.112;2023-08-08T00:20:05;10.80;96.50
17762;DHT22;9005;48.838;10.112;2023-08-08T00:22:32;10.80;99.90
17762;DHT22;9005;48.838;10.112;2023-08-08T00:24:59;10.70;99.90
17762;DHT22;9005;48.838;10.112;2023-08-08T00:27:27;10.70;99.90
17762;DHT22;9005;48.838;10.112;2023-08-08T00:29:54;10.60;99.90
17762;DHT22;9005;48.838;10.112;2023-08-08T00:32:21;10.60;99.90
17762;DHT22;9005;48.838;10.112;2023-08-08T00:34:47;10.50;99.90
17762;DHT22;9005;48.838;10.112;2023-08-08T00:37:14;10.50;99.90
17762;DHT22;9005;48.838;10.112;2023-08-08T00:39:41;10.50;99.90
17762;DHT22;9005;48.838;10.112;2023-08-08T00:42:11;10.40;99.90
17762;DHT22;9005;48.838;10.112;2023-08-08T00:44:39;10.50;99.90
17762;DHT22;9005;48.838;10.112;2023-08-08T00:47:07;10.50;99.90
17762;DHT22;9005;48.838;10.112;2023-08-08T00:49:34;10.40;99.90
17762;DHT22;9005;48.838;10.112;2023-08-08T00:52:01;10.40;99.90
17762;DHT22;9005;48.838;10.112;2023-08-08T00:54:28;10.40;99.90
17762;DHT22;9005;48.838;10.112;2023-08-08T00:56:56;10.40;99.90
17762;DHT22;9005;48.838;10.112;2023-08-08T00:59:23;10.40;99.90
17762;DHT22;9005;48.838;10.112;2023-08-08T01:01:51;10.30;99.90
17762;DHT22;9005;48.838;10.112;2023-08-08T01:04:18;10.30;99.90
17762;DHT22;9005;48.838;10.112;2023-08-08T01:07:02;10.30;99.90
17762;DHT22;9005;48.838;10.112;2023-08-08T01:09:36;10.30;99.90
17762;DHT22;9005;48.838;10.112;2023-08-08T01:12:05;10.20;99.90
17762;DHT22;9005;48.838;10.112;2023-08-08T01:14:32;10.20;99.90
17762;DHT22;9005;48.838;10.112;2023-08-08T01:17:02;10.20;99.90
17762;DHT22;9005;48.838;10.112;2023-08-08T01:19:31;10.10;99.90
17762;DHT22;9005;48.838;10.112;2023-08-08T01:22:01;10.10;99.90
17762;DHT22;9005;48.838;10.112;2023-08-08T01:24:31;10.20;99.90
17762;DHT22;9005;48.838;10.112;2023-08-08T01:26:58;10.10;99.90
17762;DHT22;9005;48.838;10.112;2023-08-08T01:29:25;10.10;99.90
17762;DHT22;9005;48.838;10.112;2023-08-08T01:31:52;10.10;99.90
17762;DHT22;9005;48.838;10.112;2023-08-08T01:34:19;10.10;99.90
17762;DHT22;9005;48.838;10.112;2023-08-08T01:36:49;10.20;99.90
17762;DHT22;9005;48.838;10.112;2023-08-08T01:39:22;10.20;99.90
17762;DHT22;9005;48.838;10.112;2023-08-08T01:41:53;10.30;99.90
17762;DHT22;9005;48.838;10.112;2023-08-08T01:44:21;10.30;99.90
17762;DHT22;9005;48.838;10.112;2023-08-08T01:46:48;10.40;99.90
17762;DHT22;9005;48.838;10.112;2023-08-08T01:49:15;10.40;99.90
17762;DHT22;9005;48.838;10.112;2023-08-08T01:51:42;10.50;99.90
17762;DHT22;9005;48.838;10.112;2023-08-08T01:54:09;10.60;99.90
17762;DHT22;9005;48.838;10.112;2023-08-08T01:56:35;10.70;99.90
17762;DHT22;9005;48.838;10.112;2023-08-08T01:59:03;10.70;99.90
17762;DHT22;9005;48.838;10.112;2023-08-08T02:01:30;10.80;99.90
17762;DHT22;9005;48.838;10.112;2023-08-08T02:03:57;10.80;99.90
17762;DHT22;9005;48.838;10.112;2023-08-08T02:06:24;10.80;99.90
17762;DHT22;9005;48.838;10.112;2023-08-08T02:08:50;10.90;99.90
17762;DHT22;9005;48.838;10.112;2023-08-08T02:11:17;10.80;99.90
17762;DHT22;9005;48.838;10.112;2023-08-08T02:13:44;10.90;99.90
17762;DHT22;9005;48.838;10.112;2023-08-08T02:16:12;10.90;99.90
17762;DHT22;9005;48.838;10.112;2023-08-08T02:18:39;10.80;99.90
17762;DHT22;9005;48.838;10.112;2023-08-08T02:21:06;10.90;99.90
17762;DHT22;9005;48.838;10.112;2023-08-08T02:23:33;10.90;99.90
17762;DHT22;9005;48.838;10.112;2023-08-08T02:26:00;10.90;99.90
17762;DHT22;9005;48.838;10.112;2023-08-08T02:28:27;10.90;99.90
17762;DHT22;9005;48.838;10.112;2023-08-08T02:30:54;11.00;99.90
17762;DHT22;9005;48.838;10.112;2023-08-08T02:33:22;11.00;99.90
17762;DHT22;9005;48.838;10.112;2023-08-08T02:35:49;11.00;99.90
17762;DHT22;9005;48.838;10.112;2023-08-08T02:38:15;11.00;99.90
17762;DHT22;9005;48.838;10.112;2023-08-08T02:40:42;11.00;99.90
17762;DHT22;9005;48.838;10.112;2023-08-08T02:43:09;11.00;99.90
17762;DHT22;9005;48.838;10.112;2023-08-08T02:45:36;11.00;99.90
17762;DHT22;9005;48.838;10.112;2023-08-08T02:48:04;11.10;99.90
17762;DHT22;9005;48.838;10.112;2023-08-08T02:50:32;11.10;99.90
17762;DHT22;9005;48.838;10.112;2023-08-08T02:52:59;11.10;99.90
17762;DHT22;9005;48.838;10.112;2023-08-08T02:55:26;11.10;99.90
17762;DHT22;9005;48.838;10.112;2023-08-08T02:57:52;11.10;99.90
17762;DHT22;9005;48.838;10.112;2023-08-08T03:00:19;11.10;99.90
17762;DHT22;9005;48.838;10.112;2023-08-08T03:02:46;11.10;99.90
17762;DHT22;9005;48.838;10.112;2023-08-08T03:05:13;11.10;99.90
17762;DHT22;9005;48.838;10.112;2023-08-08T03:07:41;11.10;99.90
17762;DHT22;9005;48.838;10.112;2023-08-08T03:10:08;11.10;99.90
17762;DHT22;9005;48.838;10.112;2023-08-08T03:12:36;11.10;99.90
17762;DHT22;9005;48.838;10.112;2023-08-08T03:15:05;11.20;99.90
17762;DHT22;9005;48.838;10.112;2023-08-08T03:17:32;11.20;99.90
17762;DHT22;9005;48.838;10.112;2023-08-08T03:20:00;11.20;99.90
17762;DHT22;9005;48.838;10.112;2023-08-08T03:22:27;11.20;99.90
17762;DHT22;9005;48.838;10.112;2023-08-08T03:24:55;11.20;70.40
17762;DHT22;9005;48.838;10.112;2023-08-08T03:27:22;11.30;76.00
17762;DHT22;9005;48.838;10.112;2023-08-08T03:29:49;11.20;99.90
17762;DHT22;9005;48.838;10.112;2023-08-08T03:32:16;11.30;99.90
17762;DHT22;9005;48.838;10.112;2023-08-08T03:34:42;11.30;99.90
17762;DHT22;9005;48.838;10.112;2023-08-08T03:37:09;11.20;99.90
17762;DHT22;9005;48.838;10.112;2023-08-08T03:39:36;11.20;99.90
17762;DHT22;9005;48.838;10.112;2023-08-08T03:42:05;11.10;99.90
17762;DHT22;9005;48.838;10.112;2023-08-08T03:44:31;11.10;99.90
17762;DHT22;9005;48.838;10.112;2023-08-08T03:46:58;11.10;99.90
17762;DHT22;9005;48.838;10.112;2023-08-08T03:49:25;11.10;99.90
17762;DHT22;9005;48.838;10.112;2023-08-08T03:51:52;11.00;99.90
17762;DHT22;9005;48.838;10.112;2023-08-08T03:54:18;11.10;99.90
17762;DHT22;9005;48.838;10.112;2023-08-08T03:56:45;11.10;99.90
17762;DHT22;9005;48.838;10.112;2023-08-08T03:59:13;11.10;99.90
17762;DHT22;9005;48.838;10.112;2023-08-08T04:01:40;11.10;99.90
17762;DHT22;9005;48.838;10.112;2023-08-08T04:04:06;11.10;99.90
17762;DHT22;9005;48.838;10.112;2023-08-08T04:06:33;11.20;99.90
17762;DHT22;9005;48.838;10.112;2023-08-08T04:09:00;11.20;99.90
17762;DHT22;9005;48.838;10.112;2023-08-08T04:11:27;11.10;99.90
17762;DHT22;9005;48.838;10.112;2023-08-08T04:13:54;11.10;99.90
17762;DHT22;9005;48.838;10.112;2023-08-08T04:16:22;11.10;99.90
17762;DHT22;9005;48.838;10.112;2023-08-08T04:18:48;11.10;99.90
17762;DHT22;9005;48.838;10.112;2023-08-08T04:21:15;11.00;99.90
17762;DHT22;9005;48.838;10.112;2023-08-08T04:23:42;10.90;99.90
17762;DHT22;9005;48.838;10.112;2023-08-08T04:26:09;10.90;99.90
17762;DHT22;9005;48.838;10.112;2023-08-08T04:28:35;10.90;99.90
17762;DHT22;9005;48.838;10.112;2023-08-08T04:31:02;10.90;99.90
17762;DHT22;9005;48.838;10.112;2023-08-08T04:33:30;10.80;99.90
17762;DHT22;9005;48.838;10.112;2023-08-08T04:35:57;10.80;99.90
17762;DHT22;9005;48.838;10.112;2023-08-08T04:38:24;10.80;99.90
17762;DHT22;9005;48.838;10.112;2023-08-08T04:40:51;10.80;99.90
17762;DHT22;9005;48.838;10.112;2023-08-08T04:43:17;10.80;99.90
17762;DHT22;9005;48.838;10.112;2023-08-08T04:45:44;10.80;99.90
17762;DHT22;9005;48.838;10.112;2023-08-08T04:48:11;10.80;99.90
17762;DHT22;9005;48.838;10.112;2023-08-08T04:50:39;10.90;99.90
17762;DHT22;9005;48.838;10.112;2023-08-08T04:53:06;10.90;99.90
17762;DHT22;9005;48.838;10.112;2023-08-08T04:55:33;11.00;99.90
17762;DHT22;9005;48.838;10.112;2023-08-08T04:57:59;11.10;99.90
17762;DHT22;9005;48.838;10.112;2023-08-08T05:00:26;11.10;99.90
17762;DHT22;9005;48.838;10.112;2023-08-08T05:02:53;11.10;99.90
17762;DHT22;9005;48.838;10.112;2023-08-08T05:05:20;11.20;99.90
17762;DHT22;9005;48.838;10.112;2023-08-08T05:07:48;11.30;99.90
17762;DHT22;9005;48.838;10.112;2023-08-08T05:10:15;11.30;99.90
17762;DHT22;9005;48.838;10.112;2023-08-08T05:12:42;11.40;99.90
17762;DHT22;9005;48.838;10.112;2023-08-08T05:15:09;11.50;99.90
17762;DHT22;9005;48.838;10.112;2023-08-08T05:17:36;11.70;99.90
17762;DHT22;9005;48.838;10.112;2023-08-08T05:20:03;11.80;99.90
17762;DHT22;9005;48.838;10.112;2023-08-08T05:22:30;11.90;99.90
17762;DHT22;9005;48.838;10.112;2023-08-08T05:24:58;12.00;99.90
17762;DHT22;9005;48.838;10.112;2023-08-08T05:27:25;12.10;99.90
17762;DHT22;9005;48.838;10.112;2023-08-08T05:29:52;12.20;99.90
17762;DHT22;9005;48.838;10.112;2023-08-08T05:32:18;12.30;99.90
17762;DHT22;9005;48.838;10.112;2023-08-08T05:34:45;12.40;99.90
17762;DHT22;9005;48.838;10.112;2023-08-08T05:37:12;12.40;98.90
17762;DHT22;9005;48.838;10.112;2023-08-08T05:39:38;12.50;53.30
17762;DHT22;9005;48.838;10.112;2023-08-08T05:42:07;12.60;10.40
17762;DHT22;9005;48.838;10.112;2023-08-08T05:44:33;12.70;82.10
17762;DHT22;9005;48.838;10.112;2023-08-08T05:47:00;12.70;1.00
17762;DHT22;9005;48.838;10.112;2023-08-08T05:49:27;12.70;1.00
17762;DHT22;9005;48.838;10.112;2023-08-08T05:51:53;12.80;1.00
17762;DHT22;9005;48.838;10.112;2023-08-08T05:54:20;12.80;47.20
17762;DHT22;9005;48.838;10.112;2023-08-08T05:56:47;12.80;1.00
17762;DHT22;9005;48.838;10.112;2023-08-08T05:59:15;12.90;35.50
17762;DHT22;9005;48.838;10.112;2023-08-08T06:01:42;12.90;51.60
17762;DHT22;9005;48.838;10.112;2023-08-08T06:04:09;13.00;1.00
17762;DHT22;9005;48.838;10.112;2023-08-08T06:06:36;13.10;1.00
17762;DHT22;9005;48.838;10.112;2023-08-08T06:09:03;13.10;1.00
17762;DHT22;9005;48.838;10.112;2023-08-08T06:11:30;13.10;17.90
17762;DHT22;9005;48.838;10.112;2023-08-08T06:13:57;13.10;44.10
17762;DHT22;9005;48.838;10.112;2023-08-08T06:16:25;13.10;31.60
17762;DHT22;9005;48.838;10.112;2023-08-08T06:18:52;13.10;30.10
17762;DHT22;9005;48.838;10.112;2023-08-08T06:21:18;13.20;28.70
17762;DHT22;9005;48.838;10.112;2023-08-08T06:23:45;13.20;1.00
17762;DHT22;9005;48.838;10.112;2023-08-08T06:26:13;13.20;1.00
17762;DHT22;9005;48.838;10.112;2023-08-08T06:28:39;13.30;1.00
17762;DHT22;9005;48.838;10.112;2023-08-08T06:31:06;13.30;1.00
17762;DHT22;9005;48.838;10.112;2023-08-08T06:33:34;13.40;99.90
17762;DHT22;9005;48.838;10.112;2023-08-08T06:36:01;13.40;1.00
17762;DHT22;9005;48.838;10.112;2023-08-08T06:38:29;13.40;1.00
17762;DHT22;9005;48.838;10.112;2023-08-08T06:40:59;13.40;1.00
17762;DHT22;9005;48.838;10.112;2023-08-08T06:43:25;13.50;1.00
17762;DHT22;9005;48.838;10.112;2023-08-08T06:45:52;13.60;1.00
17762;DHT22;9005;48.838;10.112;2023-08-08T06:48:19;13.60;99.90
17762;DHT22;9005;48.838;10.112;2023-08-08T06:50:47;13.70;99.90
17762;DHT22;9005;48.838;10.112;2023-08-08T07:25:11;15.00;99.90
17762;DHT22;9005;48.838;10.112;2023-08-08T07:27:38;14.90;99.90
17762;DHT22;9005;48.838;10.112;2023-08-08T07:30:06;14.80;99.90
17762;DHT22;9005;48.838;10.112;2023-08-08T07:32:34;14.80;1.00
17762;DHT22;9005;48.838;10.112;2023-08-08T07:35:00;14.80;1.00
17762;DHT22;9005;48.838;10.112;2023-08-08T07:37:31;14.80;1.00
17762;DHT22;9005;48.838;10.112;2023-08-08T07:39:58;14.90;99.90
17762;DHT22;9005;48.838;10.112;2023-08-08T07:42:26;15.00;99.90
17762;DHT22;9005;48.838;10.112;2023-08-08T07:44:53;15.00;99.90
17762;DHT22;9005;48.838;10.112;2023-08-08T07:47:20;15.10;99.90
17762;DHT22;9005;48.838;10.112;2023-08-08T07:49:47;15.10;1.00
17762;DHT22;9005;48.838;10.112;2023-08-08T07:52:13;15.20;1.00
17762;DHT22;9005;48.838;10.112;2023-08-08T07:54:40;15.20;99.90
17762;DHT22;9005;48.838;10.112;2023-08-08T07:57:07;15.20;99.90
17762;DHT22;9005;48.838;10.112;2023-08-08T07:59:35;15.30;99.90
17762;DHT22;9005;48.838;10.112;2023-08-08T08:02:02;15.40;99.90
17762;DHT22;9005;48.838;10.112;2023-08-08T08:04:28;15.50;99.90
17762;DHT22;9005;48.838;10.112;2023-08-08T08:06:56;15.50;99.90
17762;DHT22;9005;48.838;10.112;2023-08-08T08:09:22;15.50;99.90
17762;DHT22;9005;48.838;10.112;2023-08-08T08:11:49;15.50;99.90
17762;DHT22;9005;48.838;10.112;2023-08-08T08:14:16;15.50;99.90
17762;DHT22;9005;48.838;10.112;2023-08-08T08:16:44;15.60;99.90
17762;DHT22;9005;48.838;10.112;2023-08-08T08:19:11;15.60;99.90
17762;DHT22;9005;48.838;10.112;2023-08-08T08:21:38;15.60;99.90
17762;DHT22;9005;48.838;10.112;2023-08-08T08:24:06;15.70;99.90
17762;DHT22;9005;48.838;10.112;2023-08-08T08:26:33;15.70;99.90
17762;DHT22;9005;48.838;10.112;2023-08-08T08:28:59;15.80;99.90
17762;DHT22;9005;48.838;10.112;2023-08-08T08:31:26;15.80;99.90
17762;DHT22;9005;48.838;10.112;2023-08-08T08:33:55;16.00;99.90
17762;DHT22;9005;48.838;10.112;2023-08-08T08:36:21;16.10;99.90
17762;DHT22;9005;48.838;10.112;2023-08-08T08:38:48;16.10;99.90
17762;DHT22;9005;48.838;10.112;2023-08-08T08:41:18;16.20;99.90
17762;DHT22;9005;48.838;10.112;2023-08-08T08:43:45;16.40;99.90
17762;DHT22;9005;48.838;10.112;2023-08-08T08:46:13;16.60;99.90
17762;DHT22;9005;48.838;10.112;2023-08-08T08:48:41;16.70;99.90
17762;DHT22;9005;48.838;10.112;2023-08-08T08:51:10;16.70;92.20
17762;DHT22;9005;48.838;10.112;2023-08-08T08:53:37;16.80;96.50
17762;DHT22;9005;48.838;10.112;2023-08-08T08:56:04;16.90;49.70
17762;DHT22;9005;48.838;10.112;2023-08-08T08:58:31;17.00;51.50
17762;DHT22;9005;48.838;10.112;2023-08-08T09:00:58;17.00;62.80
17762;DHT22;9005;48.838;10.112;2023-08-08T09:03:25;17.00;90.70
17762;DHT22;9005;48.838;10.112;2023-08-08T09:05:52;17.10;46.20
17762;DHT22;9005;48.838;10.112;2023-08-08T09:08:22;17.10;99.90
17762;DHT22;9005;48.838;10.112;2023-08-08T09:10:48;17.10;61.70
17762;DHT22;9005;48.838;10.112;2023-08-08T09:13:16;17.20;70.60
17762;DHT22;9005;48.838;10.112;2023-08-08T09:15:46;17.20;26.40
17762;DHT22;9005;48.838;10.112;2023-08-08T09:18:13;17.20;1.00
17762;DHT22;9005;48.838;10.112;2023-08-08T09:20:40;17.20;27.80
17762;DHT22;9005;48.838;10.112;2023-08-08T09:23:09;17.30;1.00
17762;DHT22;9005;48.838;10.112;2023-08-08T09:25:37;17.30;25.20
17762;DHT22;9005;48.838;10.112;2023-08-08T09:28:04;17.40;54.80
17762;DHT22;9005;48.838;10.112;2023-08-08T09:30:31;17.30;50.20
17762;DHT22;9005;48.838;10.112;2023-08-08T09:32:58;17.40;51.10
17762;DHT22;9005;48.838;10.112;2023-08-08T09:35:25;17.40;68.90
17762;DHT22;9005;48.838;10.112;2023-08-08T09:37:53;17.50;38.80
17762;DHT22;9005;48.838;10.112;2023-08-08T09:40:20;17.50;34.80
17762;DHT22;9005;48.838;10.112;2023-08-08T09:42:51;17.70;11.10
17762;DHT22;9005;48.838;10.112;2023-08-08T09:45:19;17.70;28.50
17762;DHT22;9005;48.838;10.112;2023-08-08T09:47:49;17.70;1.00
17762;DHT22;9005;48.838;10.112;2023-08-08T09:50:16;17.80;1.00
17762;DHT22;9005;48.838;10.112;2023-08-08T09:52:44;17.90;1.00
17762;DHT22;9005;48.838;10.112;2023-08-08T09:55:12;18.10;1.00
17762;DHT22;9005;48.838;10.112;2023-08-08T09:57:39;18.10;1.00
17762;DHT22;9005;48.838;10.112;2023-08-08T10:00:09;18.00;1.00
17762;DHT22;9005;48.838;10.112;2023-08-08T10:02:42;17.90;1.00
17762;DHT22;9005;48.838;10.112;2023-08-08T10:05:10;17.80;1.00
17762;DHT22;9005;48.838;10.112;2023-08-08T10:07:38;17.80;1.00
17762;DHT22;9005;48.838;10.112;2023-08-08T10:10:07;17.80;1.00
17762;DHT22;9005;48.838;10.112;2023-08-08T10:12:36;17.90;1.00
17762;DHT22;9005;48.838;10.112;2023-08-08T10:15:04;18.00;1.00
17762;DHT22;9005;48.838;10.112;2023-08-08T10:17:36;18.20;1.00
17762;DHT22;9005;48.838;10.112;2023-08-08T10:20:04;18.30;1.00
17762;DHT22;9005;48.838;10.112;2023-08-08T10:22:36;18.30;1.00
17762;DHT22;9005;48.838;10.112;2023-08-08T10:25:05;18.30;1.00
17762;DHT22;9005;48.838;10.112;2023-08-08T10:27:32;18.50;1.00
17762;DHT22;9005;48.838;10.112;2023-08-08T10:30:04;18.70;1.00
17762;DHT22;9005;48.838;10.112;2023-08-08T10:32:40;19.00;1.00
17762;DHT22;9005;48.838;10.112;2023-08-08T10:35:08;19.10;1.00
17762;DHT22;9005;48.838;10.112;2023-08-08T10:37:35;19.10;1.00
17762;DHT22;9005;48.838;10.112;2023-08-08T10:40:04;19.30;1.00
17762;DHT22;9005;48.838;10.112;2023-08-08T10:42:40;19.70;1.00
17762;DHT22;9005;48.838;10.112;2023-08-08T10:45:10;20.30;1.00
17762;DHT22;9005;48.838;10.112;2023-08-08T10:47:39;20.40;1.00
17762;DHT22;9005;48.838;10.112;2023-08-08T10:50:08;20.50;99.90
17762;DHT22;9005;48.838;10.112;2023-08-08T10:52:51;20.90;99.90
17762;DHT22;9005;48.838;10.112;2023-08-08T10:55:20;21.20;99.90
17762;DHT22;9005;48.838;10.112;2023-08-08T10:57:53;21.40;99.90
17762;DHT22;9005;48.838;10.112;2023-08-08T11:00:24;21.60;99.90
17762;DHT22;9005;48.838;10.112;2023-08-08T11:02:53;21.60;99.90
17762;DHT22;9005;48.838;10.112;2023-08-08T11:05:21;21.20;99.90
17762;DHT22;9005;48.838;10.112;2023-08-08T11:07:49;21.00;99.90
17762;DHT22;9005;48.838;10.112;2023-08-08T11:10:16;20.80;99.90
17762;DHT22;9005;48.838;10.112;2023-08-08T11:12:51;20.70;99.90
17762;DHT22;9005;48.838;10.112;2023-08-08T11:15:18;20.70;99.90
17762;DHT22;9005;48.838;10.112;2023-08-08T11:17:45;20.70;99.90
17762;DHT22;9005;48.838;10.112;2023-08-08T11:20:13;21.40;99.90
17762;DHT22;9005;48.838;10.112;2023-08-08T11:22:40;20.40;99.90
17762;DHT22;9005;48.838;10.112;2023-08-08T11:25:08;20.40;99.90
17762;DHT22;9005;48.838;10.112;2023-08-08T11:27:35;20.30;99.90
17762;DHT22;9005;48.838;10.112;2023-08-08T11:30:03;20.20;99.90
17762;DHT22;9005;48.838;10.112;2023-08-08T11:32:30;20.20;99.90
17762;DHT22;9005;48.838;10.112;2023-08-08T11:34:57;20.30;1.00
17762;DHT22;9005;48.838;10.112;2023-08-08T11:37:25;20.70;1.00
17762;DHT22;9005;48.838;10.112;2023-08-08T11:39:52;20.80;99.90
17762;DHT22;9005;48.838;10.112;2023-08-08T11:42:19;20.70;99.90
17762;DHT22;9005;48.838;10.112;2023-08-08T11:44:46;20.60;99.90
17762;DHT22;9005;48.838;10.112;2023-08-08T11:47:13;20.60;99.90
17762;DHT22;9005;48.838;10.112;2023-08-08T11:49:41;20.90;1.00
17762;DHT22;9005;48.838;10.112;2023-08-08T11:52:08;21.30;99.90
17762;DHT22;9005;48.838;10.112;2023-08-08T11:54:38;21.30;99.90
17762;DHT22;9005;48.838;10.112;2023-08-08T11:57:05;21.00;99.90
17762;DHT22;9005;48.838;10.112;2023-08-08T11:59:31;21.20;99.90
17762;DHT22;9005;48.838;10.112;2023-08-08T12:01:58;21.40;99.90
17762;DHT22;9005;48.838;10.112;2023-08-08T12:04:25;21.30;99.90
17762;DHT22;9005;48.838;10.112;2023-08-08T12:07:00;20.80;99.90
17762;DHT22;9005;48.838;10.112;2023-08-08T12:09:30;20.60;99.90
17762;DHT22;9005;48.838;10.112;2023-08-08T12:12:00;20.50;99.90
17762;DHT22;9005;48.838;10.112;2023-08-08T12:14:27;20.50;99.90
17762;DHT22;9005;48.838;10.112;2023-08-08T12:16:54;20.50;99.90
17762;DHT22;9005;48.838;10.112;2023-08-08T12:19:23;20.40;99.90
17762;DHT22;9005;48.838;10.112;2023-08-08T12:21:50;20.40;99.90
17762;DHT22;9005;48.838;10.112;2023-08-08T12:24:17;20.80;99.90
17762;DHT22;9005;48.838;10.112;2023-08-08T12:26:44;21.00;99.90
17762;DHT22;9005;48.838;10.112;2023-08-08T12:29:12;21.50;99.90
17762;DHT22;9005;48.838;10.112;2023-08-08T12:31:39;22.10;99.90
17762;DHT22;9005;48.838;10.112;2023-08-08T12:34:06;22.00;99.90
17762;DHT22;9005;48.838;10.112;2023-08-08T12:36:33;21.80;99.90
17762;DHT22;9005;48.838;10.112;2023-08-08T12:39:00;21.50;99.90
17762;DHT22;9005;48.838;10.112;2023-08-08T12:41:27;21.30;99.90
17762;DHT22;9005;48.838;10.112;2023-08-08T12:43:55;21.00;99.90
17762;DHT22;9005;48.838;10.112;2023-08-08T12:46:23;20.80;99.90
17762;DHT22;9005;48.838;10.112;2023-08-08T12:48:49;20.70;99.90
17762;DHT22;9005;48.838;10.112;2023-08-08T12:51:16;20.80;99.90
17762;DHT22;9005;48.838;10.112;2023-08-08T12:53:44;20.90;99.90
17762;DHT22;9005;48.838;10.112;2023-08-08T12:56:10;21.00;99.90
17762;DHT22;9005;48.838;10.112;2023-08-08T12:58:37;21.10;99.90
17762;DHT22;9005;48.838;10.112;2023-08-08T13:01:06;21.20;99.90
17762;DHT22;9005;48.838;10.112;2023-08-08T13:03:34;21.40;99.90
17762;DHT22;9005;48.838;10.112;2023-08-08T13:06:01;21.60;99.90
17762;DHT22;9005;48.838;10.112;2023-08-08T13:08:27;21.50;99.90
17762;DHT22;9005;48.838;10.112;2023-08-08T13:10:54;21.50;99.90
17762;DHT22;9005;48.838;10.112;2023-08-08T13:13:21;21.60;99.90
17762;DHT22;9005;48.838;10.112;2023-08-08T13:15:50;21.90;99.90
17762;DHT22;9005;48.838;10.112;2023-08-08T13:18:17;21.70;99.90
17762;DHT22;9005;48.838;10.112;2023-08-08T13:20:45;21.40;99.90
17762;DHT22;9005;48.838;10.112;2023-08-08T13:23:12;21.40;99.90
17762;DHT22;9005;48.838;10.112;2023-08-08T13:25:39;21.40;99.90
17762;DHT22;9005;48.838;10.112;2023-08-08T13:28:06;21.50;99.90
17762;DHT22;9005;48.838;10.112;2023-08-08T13:30:33;21.70;99.90
17762;DHT22;9005;48.838;10.112;2023-08-08T13:33:01;22.20;99.90
17762;DHT22;9005;48.838;10.112;2023-08-08T13:35:27;22.40;99.90
17762;DHT22;9005;48.838;10.112;2023-08-08T13:37:56;22.50;99.90
17762;DHT22;9005;48.838;10.112;2023-08-08T13:40:23;22.60;99.90
17762;DHT22;9005;48.838;10.112;2023-08-08T13:42:50;22.60;99.90
17762;DHT22;9005;48.838;10.112;2023-08-08T13:45:17;22.60;99.90
17762;DHT22;9005;48.838;10.112;2023-08-08T13:47:44;22.90;99.90
17762;DHT22;9005;48.838;10.112;2023-08-08T13:50:12;22.80;99.90
17762;DHT22;9005;48.838;10.112;2023-08-08T13:52:39;22.90;99.90
17762;DHT22;9005;48.838;10.112;2023-08-08T13:55:08;23.30;99.90
17762;DHT22;9005;48.838;10.112;2023-08-08T13:57:35;23.80;99.90
17762;DHT22;9005;48.838;10.112;2023-08-08T14:00:03;24.10;99.90
17762;DHT22;9005;48.838;10.112;2023-08-08T14:02:31;23.80;99.90
17762;DHT22;9005;48.838;10.112;2023-08-08T14:04:58;23.30;99.90
17762;DHT22;9005;48.838;10.112;2023-08-08T14:07:25;22.60;99.90
17762;DHT22;9005;48.838;10.112;2023-08-08T14:09:52;22.10;99.90
17762;DHT22;9005;48.838;10.112;2023-08-08T14:12:20;21.70;99.90
17762;DHT22;9005;48.838;10.112;2023-08-08T14:14:47;21.40;99.90
17762;DHT22;9005;48.838;10.112;2023-08-08T14:17:13;21.40;99.90
17762;DHT22;9005;48.838;10.112;2023-08-08T14:19:40;21.90;99.90
17762;DHT22;9005;48.838;10.112;2023-08-08T14:22:07;22.60;99.90
17762;DHT22;9005;48.838;10.112;2023-08-08T14:24:33;22.80;99.90
17762;DHT22;9005;48.838;10.112;2023-08-08T14:27:00;22.70;99.90
17762;DHT22;9005;48.838;10.112;2023-08-08T14:29:28;22.30;99.90
17762;DHT22;9005;48.838;10.112;2023-08-08T14:31:55;22.00;99.90
17762;DHT22;9005;48.838;10.112;2023-08-08T14:34:28;21.50;99.90
17762;DHT22;9005;48.838;10.112;2023-08-08T14:36:55;21.10;99.90
17762;DHT22;9005;48.838;10.112;2023-08-08T14:39:22;20.70;99.90
17762;DHT22;9005;48.838;10.112;2023-08-08T14:41:49;20.30;99.90
17762;DHT22;9005;48.838;10.112;2023-08-08T14:44:16;20.20;99.90
17762;DHT22;9005;48.838;10.112;2023-08-08T14:46:44;20.10;99.90
17762;DHT22;9005;48.838;10.112;2023-08-08T14:49:11;19.90;99.90
17762;DHT22;9005;48.838;10.112;2023-08-08T14:51:38;19.80;99.90
17762;DHT22;9005;48.838;10.112;2023-08-08T14:54:05;19.70;99.90
17762;DHT22;9005;48.838;10.112;2023-08-08T14:56:31;19.70;99.90
17762;DHT22;9005;48.838;10.112;2023-08-08T14:58:58;19.80;99.90
17762;DHT22;9005;48.838;10.112;2023-08-08T15:01:25;19.80;99.90
17762;DHT22;9005;48.838;10.112;2023-08-08T15:03:53;20.00;99.90
17762;DHT22;9005;48.838;10.112;2023-08-08T15:06:21;20.10;99.90
17762;DHT22;9005;48.838;10.112;2023-08-08T15:08:48;20.30;99.90
17762;DHT22;9005;48.838;10.112;2023-08-08T15:11:16;20.50;99.90
17762;DHT22;9005;48.838;10.112;2023-08-08T15:13:43;20.80;99.90
17762;DHT22;9005;48.838;10.112;2023-08-08T15:16:10;20.90;99.90
17762;DHT22;9005;48.838;10.112;2023-08-08T15:18:36;21.40;99.90
17762;DHT22;9005;48.838;10.112;2023-08-08T15:21:04;21.80;99.90
17762;DHT22;9005;48.838;10.112;2023-08-08T15:25:58;22.20;99.90
17762;DHT22;9005;48.838;10.112;2023-08-08T15:28:25;22.10;99.90
17762;DHT22;9005;48.838;10.112;2023-08-08T15:30:52;22.10;99.90
17762;DHT22;9005;48.838;10.112;2023-08-08T15:33:19;22.00;99.90
17762;DHT22;9005;48.838;10.112;2023-08-08T15:35:46;21.80;99.90
17762;DHT22;9005;48.838;10.112;2023-08-08T15:38:14;21.60;99.90
17762;DHT22;9005;48.838;10.112;2023-08-08T15:40:41;21.40;99.90
17762;DHT22;9005;48.838;10.112;2023-08-08T15:43:08;21.10;99.90
17762;DHT22;9005;48.838;10.112;2023-08-08T15:45:34;21.00;99.90
17762;DHT22;9005;48.838;10.112;2023-08-08T15:48:02;20.80;99.90
17762;DHT22;9005;48.838;10.112;2023-08-08T15:50:29;20.60;99.90
17762;DHT22;9005;48.838;10.112;2023-08-08T15:52:56;20.30;99.90
17762;DHT22;9005;48.838;10.112;2023-08-08T15:55:26;20.00;99.90
17762;DHT22;9005;48.838;10.112;2023-08-08T15:57:53;19.90;99.90
17762;DHT22;9005;48.838;10.112;2023-08-08T16:00:20;19.80;99.90
17762;DHT22;9005;48.838;10.112;2023-08-08T16:02:47;19.60;99.90
17762;DHT22;9005;48.838;10.112;2023-08-08T16:05:14;19.50;99.90
17762;DHT22;9005;48.838;10.112;2023-08-08T16:07:41;19.40;99.90